Terminal Aerodrome Forecast
Issued by NWS

Home | Current Version | Previous Version | Text Only | Print | Product List | Glossary On
Versions: 1 2 3 4 5 6 7 8 9 10 11 12 13 14 15 16 17 18 19
000
FTUS44 KBMX 201126
TAFEET
TAF
KEET 201126Z 2012/2112 00000KT 3SM BR SCT250
     FM201400 00000KT P6SM SCT250
     FM201700 12005KT P6SM VCTS SCT050CB BKN250 PROB30 2021/2101
      P6SM TSRA BKN050CB
     FM210800 10002KT 4SM BR OVC015
     FM211000 06004KT 2SM BR OVC007=

USA.gov is the U.S. government's official web portal to all federal, state and local government web resources and services.